createdAt,value
2023-01-13T00:00:16.167Z,7.823152
2023-01-13T00:05:15.799Z,4.264614
2023-01-13T00:10:15.824Z,2.382301
2023-01-13T00:15:15.762Z,1.277309
2023-01-13T00:20:16.236Z,1.017082
2023-01-13T00:25:17.183Z,0.965386
2023-01-13T00:30:15.744Z,0.214900
2023-01-13T00:35:15.824Z,0.018163
2023-01-13T00:40:15.824Z,0.002276
2023-01-13T00:45:15.967Z,0.000000
2023-01-13T00:50:16.375Z,0.000000
2023-01-13T00:55:16.126Z,0.000000
2023-01-13T01:00:15.767Z,0.002292
2023-01-13T01:05:15.780Z,0.000000
2023-01-13T01:10:15.709Z,0.000000
2023-01-13T01:15:15.618Z,0.000000
2023-01-13T01:20:15.786Z,0.000000
2023-01-13T01:25:15.942Z,0.000000
2023-01-13T01:30:16.942Z,0.000000
2023-01-13T01:35:15.635Z,0.000000
2023-01-13T01:40:15.566Z,0.000000
2023-01-13T01:45:16.234Z,0.002239
2023-01-13T01:50:15.775Z,0.000000
2023-01-13T01:55:16.145Z,0.000000
2023-01-13T02:00:16.085Z,0.000000
2023-01-13T02:05:15.707Z,0.000000
2023-01-13T02:10:15.960Z,0.000000
2023-01-13T02:15:16.339Z,0.000000
2023-01-13T02:20:15.621Z,0.000000
2023-01-13T02:25:15.990Z,0.000000
2023-01-13T02:30:15.880Z,0.000000
2023-01-13T02:35:15.721Z,0.000000
2023-01-13T02:40:17.519Z,0.000000
2023-01-13T02:45:16.781Z,0.000000
2023-01-13T02:50:15.729Z,0.000000
2023-01-13T02:55:15.722Z,0.000000
2023-01-13T03:00:16.775Z,0.000000
2023-01-13T03:05:15.892Z,0.000000
2023-01-13T03:10:15.701Z,0.000000
2023-01-13T03:15:15.707Z,0.000000
2023-01-13T03:20:15.983Z,0.000000
2023-01-13T03:25:16.344Z,0.000000
2023-01-13T03:30:16.330Z,0.000000
2023-01-13T03:35:16.107Z,0.000000
2023-01-13T03:40:16.624Z,0.000000
2023-01-13T03:45:16.043Z,0.000000
2023-01-13T03:50:15.762Z,0.000000
2023-01-13T03:55:16.032Z,0.000000
2023-01-13T04:00:15.677Z,0.000000
2023-01-13T04:05:16.522Z,0.000000
2023-01-13T04:10:15.777Z,0.000000
2023-01-13T04:15:16.436Z,0.000000
2023-01-13T04:20:16.428Z,0.000000
2023-01-13T04:25:16.226Z,0.000000
2023-01-13T04:30:15.998Z,0.000000
2023-01-13T04:35:16.129Z,0.000000
2023-01-13T04:40:15.762Z,0.000000
2023-01-13T04:45:16.037Z,0.000000
2023-01-13T04:50:15.695Z,0.000000
2023-01-13T04:55:15.596Z,0.000000
2023-01-13T05:00:15.948Z,0.000000
2023-01-13T05:05:15.883Z,0.000000
2023-01-13T05:10:15.985Z,0.000000
2023-01-13T05:15:16.216Z,0.000000
2023-01-13T05:20:16.415Z,0.000000
2023-01-13T05:25:16.150Z,0.000000
2023-01-13T05:30:16.062Z,0.000000
2023-01-13T05:35:16.028Z,0.000000
2023-01-13T05:40:16.493Z,0.000000
2023-01-13T05:45:17.466Z,0.000000
2023-01-13T05:50:16.290Z,0.000000
2023-01-13T05:55:16.541Z,0.000000
2023-01-13T06:00:15.586Z,0.000000
2023-01-13T06:05:17.085Z,0.000000
2023-01-13T06:10:16.215Z,0.000000
2023-01-13T06:15:16.394Z,0.000000
2023-01-13T06:20:16.049Z,0.000000
2023-01-13T06:25:15.609Z,0.000000
2023-01-13T06:30:16.051Z,0.000000
2023-01-13T06:35:15.649Z,0.000000
2023-01-13T06:40:16.109Z,0.000000
2023-01-13T06:45:16.328Z,0.000000
2023-01-13T06:50:15.609Z,0.000000
2023-01-13T06:55:15.932Z,0.000000
2023-01-13T07:00:15.769Z,0.000000
2023-01-13T07:05:16.228Z,0.000000
2023-01-13T07:10:15.673Z,0.000000
2023-01-13T07:15:15.851Z,0.000000
2023-01-13T07:20:16.194Z,0.000000
2023-01-13T07:25:16.062Z,0.000000
2023-01-13T07:30:16.014Z,0.000000
2023-01-13T07:35:15.836Z,0.000000
2023-01-13T07:40:17.476Z,0.000000
2023-01-13T07:45:16.189Z,0.000000
2023-01-13T07:50:15.694Z,0.000000
2023-01-13T07:55:15.593Z,0.000000
2023-01-13T08:00:15.747Z,0.000000
2023-01-13T08:05:16.018Z,0.000000
2023-01-13T08:10:15.735Z,0.000000
2023-01-13T08:15:15.770Z,0.000000
2023-01-13T08:20:15.914Z,0.000000
2023-01-13T08:25:16.624Z,0.000000
2023-01-13T08:30:15.809Z,0.000000
2023-01-13T08:35:15.544Z,0.000000
2023-01-13T08:40:16.659Z,0.000000
2023-01-13T08:45:15.898Z,0.000000
2023-01-13T08:50:16.023Z,0.000000
2023-01-13T08:55:15.737Z,0.000000
2023-01-13T09:00:16.335Z,0.000000
2023-01-13T09:05:17.683Z,0.000000
2023-01-13T09:10:16.449Z,0.000000
2023-01-13T09:15:16.635Z,0.000000
2023-01-13T09:20:15.820Z,0.000000
2023-01-13T09:25:16.336Z,0.000000
2023-01-13T09:30:16.029Z,0.000000
2023-01-13T09:35:16.404Z,0.000000
2023-01-13T09:40:17.396Z,0.000000
2023-01-13T09:45:15.943Z,0.005548
2023-01-13T09:50:27.448Z,0.000000
2023-01-13T09:55:16.314Z,0.000000
2023-01-13T10:00:15.890Z,0.000000
2023-01-13T10:05:16.266Z,0.000000
2023-01-13T10:10:16.443Z,0.000000
2023-01-13T10:15:15.996Z,0.000000
2023-01-13T10:20:16.650Z,0.000000
2023-01-13T10:25:16.020Z,0.000000
2023-01-13T10:30:15.871Z,0.000000
2023-01-13T10:35:15.781Z,0.000000
2023-01-13T10:40:16.989Z,0.000000
2023-01-13T10:45:16.859Z,0.000000
2023-01-13T10:50:15.944Z,0.000000
2023-01-13T10:55:15.961Z,0.000000
2023-01-13T11:00:16.378Z,0.000000
2023-01-13T11:05:16.418Z,0.000000
2023-01-13T11:10:15.949Z,0.000000
2023-01-13T11:15:16.215Z,0.000000
2023-01-13T11:20:15.610Z,0.000000
2023-01-13T11:25:15.878Z,0.000000
2023-01-13T11:30:16.272Z,0.000000
2023-01-13T11:35:15.976Z,0.000000
2023-01-13T11:40:15.573Z,0.000000
2023-01-13T11:45:16.103Z,0.000000
2023-01-13T11:50:16.403Z,0.000000
2023-01-13T11:55:16.440Z,0.000000
2023-01-13T12:00:16.151Z,0.000000
2023-01-13T12:05:16.379Z,0.000000
2023-01-13T12:10:15.698Z,0.000000
2023-01-13T12:15:15.739Z,0.000000
2023-01-13T12:20:15.597Z,0.000000
2023-01-13T12:25:16.110Z,0.000000
2023-01-13T12:30:16.019Z,0.000000
2023-01-13T12:35:15.839Z,0.000000
2023-01-13T12:40:15.801Z,0.000000
2023-01-13T12:45:18.507Z,0.000000
2023-01-13T12:50:16.441Z,0.000000
2023-01-13T12:55:15.620Z,0.000000
2023-01-13T13:00:16.509Z,0.000000
2023-01-13T13:05:15.674Z,0.000000
2023-01-13T13:10:16.529Z,0.000000
2023-01-13T13:15:15.981Z,0.000000
2023-01-13T13:20:15.651Z,0.000000
2023-01-13T13:25:16.301Z,0.000000
2023-01-13T13:30:16.433Z,0.000000
2023-01-13T13:35:15.701Z,0.000000
2023-01-13T13:40:16.799Z,0.000000
2023-01-13T13:45:17.187Z,0.000000
2023-01-13T13:50:15.795Z,0.000000
2023-01-13T13:55:15.964Z,0.000000
2023-01-13T14:00:15.785Z,0.000000
2023-01-13T14:05:16.035Z,0.000000
2023-01-13T14:10:15.650Z,0.000000
2023-01-13T14:15:15.887Z,0.000000
2023-01-13T14:20:15.552Z,0.000000
2023-01-13T14:25:19.246Z,0.000000
2023-01-13T14:30:16.658Z,0.000000
2023-01-13T14:35:16.115Z,0.000000
2023-01-13T14:40:15.776Z,0.000000
2023-01-13T14:45:16.491Z,0.000000
2023-01-13T14:50:15.887Z,0.000000
2023-01-13T14:55:15.796Z,0.000000
2023-01-13T15:00:25.330Z,0.000000
2023-01-13T15:05:15.993Z,0.000000
2023-01-13T15:10:15.689Z,0.000000
2023-01-13T15:15:15.605Z,0.000000
2023-01-13T15:20:15.820Z,0.000000
2023-01-13T15:25:15.745Z,0.000000
2023-01-13T15:30:15.511Z,0.000000
2023-01-13T15:35:15.633Z,0.000000
2023-01-13T15:40:16.367Z,0.000000
2023-01-13T15:45:16.434Z,0.000000
2023-01-13T15:50:16.119Z,0.000000
2023-01-13T15:55:15.607Z,0.000000
2023-01-13T16:00:16.242Z,0.000000
2023-01-13T16:05:15.830Z,0.004478
2023-01-13T16:10:16.437Z,0.083264
2023-01-13T16:15:15.635Z,0.963576
2023-01-13T16:20:15.642Z,2.109367
2023-01-13T16:25:16.298Z,2.665630
2023-01-13T16:30:15.512Z,2.248242
2023-01-13T16:35:16.079Z,2.168081
2023-01-13T16:40:15.629Z,1.979294
2023-01-13T16:45:16.776Z,7.314073
2023-01-13T16:50:16.460Z,11.557917
2023-01-13T16:55:16.958Z,12.658783
2023-01-13T17:00:15.671Z,16.643288
2023-01-13T17:05:16.346Z,22.103236
2023-01-13T17:10:16.871Z,26.143625
2023-01-13T17:15:15.865Z,24.564454
2023-01-13T17:20:16.662Z,27.766062
2023-01-13T17:25:16.843Z,29.228078
2023-01-13T17:30:16.573Z,38.734778
2023-01-13T17:35:16.203Z,47.319821
2023-01-13T17:40:15.974Z,51.995032
2023-01-13T17:45:16.368Z,48.172672
2023-01-13T17:50:16.183Z,45.015235
2023-01-13T17:55:15.945Z,38.836555
2023-01-13T18:00:16.197Z,42.500335
2023-01-13T18:05:16.027Z,40.310501
2023-01-13T18:10:16.287Z,39.795607
2023-01-13T18:15:16.056Z,38.296553
2023-01-13T18:20:16.143Z,31.125310
2023-01-13T18:25:15.935Z,40.041976
2023-01-13T18:30:15.895Z,54.247095
2023-01-13T18:35:16.489Z,64.614215
2023-01-13T18:40:15.760Z,71.588800
2023-01-13T18:45:17.061Z,78.233638
2023-01-13T18:50:16.757Z,67.759971
2023-01-13T18:55:15.682Z,87.085310
2023-01-13T19:00:16.076Z,103.549144
2023-01-13T19:05:16.418Z,78.647145
2023-01-13T19:10:15.896Z,56.989376
2023-01-13T19:15:16.215Z,54.713251
2023-01-13T19:20:16.442Z,77.446452
2023-01-13T19:25:16.041Z,69.312791
2023-01-13T19:30:16.439Z,55.202870
2023-01-13T19:35:15.561Z,42.558524
2023-01-13T19:40:15.656Z,35.912501
2023-01-13T19:45:16.096Z,44.657975
2023-01-13T19:50:16.349Z,57.977233
2023-01-13T19:55:15.868Z,55.742536
2023-01-13T20:00:15.845Z,34.393814
2023-01-13T20:05:15.951Z,31.147064
2023-01-13T20:10:16.880Z,44.620941
2023-01-13T20:15:15.810Z,32.143714
2023-01-13T20:20:16.564Z,48.678701
2023-01-13T20:25:16.082Z,45.363252
2023-01-13T20:30:16.315Z,48.135391
2023-01-13T20:35:17.204Z,94.859916
2023-01-13T20:40:15.736Z,86.866124
2023-01-13T20:45:15.545Z,35.859684
2023-01-13T20:50:15.887Z,17.898356
2023-01-13T20:55:16.522Z,34.511945
2023-01-13T21:00:16.198Z,57.969285
2023-01-13T21:05:15.643Z,67.022735
2023-01-13T21:10:15.879Z,53.737328
2023-01-13T21:15:16.116Z,57.976810
2023-01-13T21:20:15.606Z,74.614838
2023-01-13T21:25:16.209Z,77.280485
2023-01-13T21:30:16.587Z,101.877728
2023-01-13T21:35:15.701Z,101.679794
2023-01-13T21:40:15.927Z,85.395692
2023-01-13T21:45:16.542Z,64.420174
2023-01-13T21:50:16.309Z,68.207466
2023-01-13T21:55:15.528Z,66.860965
2023-01-13T22:00:15.621Z,38.687415
2023-01-13T22:05:15.920Z,58.697595
2023-01-13T22:10:16.135Z,63.188603
2023-01-13T22:15:16.856Z,28.030677
2023-01-13T22:20:16.201Z,17.662398
2023-01-13T22:25:16.102Z,33.889750
2023-01-13T22:30:15.924Z,33.032025
2023-01-13T22:35:16.281Z,49.333141
2023-01-13T22:40:15.768Z,59.410504
2023-01-13T22:45:17.011Z,58.445638
2023-01-13T22:50:16.329Z,61.362882
2023-01-13T22:55:15.896Z,77.231564
2023-01-13T23:00:16.270Z,70.318907
2023-01-13T23:05:15.823Z,56.093245
2023-01-13T23:10:16.390Z,54.439441
2023-01-13T23:15:16.366Z,47.029571
2023-01-13T23:20:16.156Z,42.061296
2023-01-13T23:25:15.701Z,50.325842
2023-01-13T23:30:16.472Z,54.397613
2023-01-13T23:35:16.708Z,53.495375
2023-01-13T23:40:16.215Z,55.218920
2023-01-13T23:45:16.290Z,49.309132
2023-01-13T23:50:16.294Z,31.210755
2023-01-13T23:55:16.645Z,27.198535
